SEIB weather

Atahualpa Airport
Ibarra, Imbabura Province, Ecuador

Public forecast

Using degrees Celsius for public forecast. Weather courtesy of forecast.io.

METAR (pilot weather report)

Closest report is Mariscal Sucre International Airport, 31.1 nm (57.5 km) SSW. Retrieved 2019/08/22 08:00 UTC (12 minutes ago):

SEQM 220800Z 13001KT 9999 FEW033 BKN080 14/06 Q1027 NOSIG RMK A3033

TAF (pilot weather forecast)

Closest forecast is Mariscal Sucre International Airport, 31.1 nm (57.5 km) SSW. Retrieved 2019/08/22 06:35 UTC (2 hours ago):

TAF SEQM 220410Z 2206/2306 00000KT 9999 SCT026 BKN080 BECMG 2212/2213 SCT033 SCT100 BECMG 2216/2218 22012KT BECMG 2221/2222 35010KT FEW033 SCT080 BECMG 2300/2301 VRB03KT TX24/2219Z TN10/2211Z